createdAt,value
2022-08-21T00:05:03.214Z,9.27
2022-08-21T00:10:06.496Z,8.88
2022-08-21T00:15:10.335Z,7.40
2022-08-21T00:20:15.927Z,8.25
2022-08-21T00:25:20.953Z,6.35
2022-08-21T00:30:28.777Z,7.47
2022-08-21T00:35:38.099Z,8.25
2022-08-21T00:40:45.291Z,6.63
2022-08-21T00:45:48.464Z,5.20
2022-08-21T00:50:55.979Z,9.00
2022-08-21T01:01:03.726Z,9.50
2022-08-21T01:06:10.044Z,8.88
2022-08-21T01:11:13.562Z,11.23
2022-08-21T01:16:19.696Z,10.23
2022-08-21T01:21:28.296Z,8.13
2022-08-21T01:26:34.512Z,9.10
2022-08-21T01:31:38.257Z,8.48
2022-08-21T01:36:40.969Z,11.13
2022-08-21T01:41:43.574Z,7.97
2022-08-21T01:46:46.207Z,10.02
2022-08-21T01:51:48.726Z,11.60
2022-08-21T01:56:54.335Z,10.00
2022-08-21T02:01:56.728Z,10.40
2022-08-21T02:06:59.287Z,12.68
2022-08-21T02:12:01.740Z,12.57
2022-08-21T02:17:05.278Z,12.15
2022-08-21T02:22:11.847Z,15.40
2022-08-21T02:27:14.268Z,12.05
2022-08-21T02:32:16.959Z,10.35
2022-08-21T02:37:19.422Z,14.10
2022-08-21T02:42:21.890Z,9.32
2022-08-21T02:47:24.314Z,9.38
2022-08-21T02:52:26.708Z,11.43
2022-08-21T02:57:29.200Z,13.77
2022-08-21T03:02:32.020Z,13.32
2022-08-21T03:07:35.597Z,13.52
2022-08-21T03:12:38.287Z,10.55
2022-08-21T03:17:41.057Z,11.05
2022-08-21T03:22:45.679Z,12.85
2022-08-21T03:27:58.800Z,12.77
2022-08-21T03:33:02.755Z,13.13
2022-08-21T03:38:05.415Z,12.95
2022-08-21T03:43:10.190Z,19.65
2022-08-21T03:48:13.359Z,14.90
2022-08-21T03:53:18.047Z,14.10
2022-08-21T03:58:23.319Z,14.95
2022-08-21T04:03:27.028Z,14.20
2022-08-21T04:08:29.551Z,18.67
2022-08-21T04:13:32.105Z,16.50
2022-08-21T04:18:34.842Z,20.38
2022-08-21T04:23:38.160Z,12.25
2022-08-21T04:28:40.624Z,11.98
2022-08-21T04:33:43.329Z,12.25
2022-08-21T04:38:45.826Z,13.20
2022-08-21T04:43:48.407Z,16.48
2022-08-21T04:48:51.686Z,17.73
2022-08-21T04:54:03.686Z,13.98
2022-08-21T04:59:09.365Z,20.05
2022-08-21T05:04:14.092Z,15.20
2022-08-21T05:09:18.911Z,12.68
2022-08-21T05:14:21.519Z,10.20
2022-08-21T05:19:24.516Z,17.05
2022-08-21T05:24:27.203Z,13.60
2022-08-21T05:29:32.561Z,12.23
2022-08-21T05:34:35.249Z,14.73
2022-08-21T05:40:21.323Z,14.45
2022-08-21T05:45:02.250Z,11.20
2022-08-21T05:50:05.762Z,14.18
2022-08-21T05:55:08.855Z,9.98
2022-08-21T06:00:13.461Z,15.32
2022-08-21T06:05:16.561Z,9.93
2022-08-21T06:10:27.558Z,13.63
2022-08-21T06:15:29.969Z,10.75
2022-08-21T06:20:33.518Z,14.13
2022-08-21T06:25:36.358Z,12.77
2022-08-21T06:30:39.706Z,10.63
2022-08-21T06:35:42.820Z,13.57
2022-08-21T06:40:48.132Z,10.75
2022-08-21T06:45:50.827Z,14.52
2022-08-21T06:50:53.738Z,9.88
2022-08-21T06:55:56.601Z,10.38
2022-08-21T07:01:01.200Z,14.60
2022-08-21T07:06:06.015Z,10.45
2022-08-21T07:11:16.619Z,12.30
2022-08-21T07:16:19.076Z,18.80
2022-08-21T07:21:25.809Z,14.63
2022-08-21T07:26:28.655Z,11.40
2022-08-21T07:31:31.310Z,12.10
2022-08-21T07:36:33.815Z,15.45
2022-08-21T07:41:38.706Z,12.00
2022-08-21T07:46:41.270Z,11.38
2022-08-21T07:51:43.649Z,13.48
2022-08-21T07:56:46.793Z,13.05
2022-08-21T08:01:49.288Z,16.60
2022-08-21T08:06:51.756Z,16.25
2022-08-21T08:11:54.591Z,15.63
2022-08-21T08:16:57.675Z,16.73
2022-08-21T08:22:00.107Z,13.60
2022-08-21T08:27:02.577Z,18.48
2022-08-21T08:32:06.118Z,15.05
2022-08-21T08:37:10.452Z,12.38
2022-08-21T08:42:32.174Z,14.07
2022-08-21T08:47:51.629Z,24.52
2022-08-21T08:52:59.977Z,15.88
2022-08-21T08:58:03.834Z,15.10
2022-08-21T09:03:06.341Z,11.40
2022-08-21T09:08:53.134Z,10.45
2022-08-21T09:14:30.731Z,18.15
2022-08-21T09:20:00.514Z,11.57
2022-08-21T09:25:26.778Z,13.60
2022-08-21T09:30:32.405Z,14.35
2022-08-21T09:35:36.532Z,15.13
2022-08-21T09:40:41.444Z,11.63
2022-08-21T09:45:44.646Z,13.30
2022-08-21T09:50:48.753Z,12.20
2022-08-21T09:56:37.541Z,11.65
2022-08-21T10:01:48.061Z,11.73
2022-08-21T10:06:50.500Z,15.02
2022-08-21T10:12:02.107Z,18.63
2022-08-21T10:17:21.640Z,20.83
2022-08-21T10:22:31.070Z,18.77
2022-08-21T10:27:39.258Z,20.20
2022-08-21T10:32:48.640Z,21.45
2022-08-21T10:38:04.380Z,24.00
2022-08-21T10:43:34.548Z,20.35
2022-08-21T10:49:00.925Z,23.02
2022-08-21T10:54:18.192Z,22.67
2022-08-21T10:59:40.342Z,23.27
2022-08-21T11:05:23.326Z,29.17
2022-08-21T11:10:57.492Z,21.55
2022-08-21T11:16:25.447Z,18.15
2022-08-21T11:21:29.876Z,11.80
2022-08-21T11:26:38.462Z,14.60
2022-08-21T11:32:21.926Z,15.27
2022-08-21T11:37:45.394Z,10.18
2022-08-21T11:43:12.499Z,8.57
2022-08-21T11:48:42.575Z,8.43
2022-08-21T11:54:07.396Z,9.40
2022-08-21T11:59:23.971Z,7.05
2022-08-21T12:04:44.759Z,7.60
2022-08-21T12:09:56.360Z,8.60
2022-08-21T12:15:23.762Z,12.43
2022-08-21T12:20:50.873Z,10.55
2022-08-21T12:26:04.823Z,10.82
2022-08-21T12:31:19.700Z,12.98
2022-08-21T12:36:27.052Z,14.75
2022-08-21T12:41:33.660Z,14.45
2022-08-21T12:46:53.814Z,13.33
2022-08-21T12:52:02.100Z,15.23
2022-08-21T12:57:07.546Z,12.27
2022-08-21T13:02:18.747Z,12.68
2022-08-21T13:07:27.870Z,11.85
2022-08-21T13:12:32.648Z,11.88
2022-08-21T13:17:38.679Z,13.23
2022-08-21T13:22:45.654Z,11.55
2022-08-21T13:28:10.240Z,18.20
2022-08-21T13:33:17.341Z,11.15
2022-08-21T13:38:27.125Z,10.27
2022-08-21T13:43:34.665Z,9.32
2022-08-21T13:48:38.018Z,14.57
2022-08-21T13:53:43.824Z,13.07
2022-08-21T13:58:48.125Z,10.35
2022-08-21T14:03:53.399Z,12.65
2022-08-21T14:09:02.437Z,9.13
2022-08-21T14:14:11.844Z,8.98
2022-08-21T14:19:23.597Z,9.90
2022-08-21T14:24:29.762Z,9.35
2022-08-21T14:29:42.109Z,8.43
2022-08-21T14:34:46.634Z,8.45
2022-08-21T14:39:49.332Z,7.53
2022-08-21T14:44:52.498Z,7.53
2022-08-21T14:49:55.355Z,8.57
2022-08-21T14:54:57.737Z,6.97
2022-08-21T15:00:02.402Z,5.60
2022-08-21T15:05:05.992Z,6.13
2022-08-21T15:10:09.851Z,4.70
2022-08-21T15:15:12.581Z,8.00
2022-08-21T15:25:22.726Z,6.05
2022-08-21T15:30:25.763Z,5.63
2022-08-21T15:35:28.339Z,8.23
2022-08-21T15:40:31.208Z,6.85
2022-08-21T15:45:34.683Z,5.32
2022-08-21T15:50:37.749Z,7.60
2022-08-21T15:55:40.681Z,5.03
2022-08-21T16:00:45.184Z,5.35
2022-08-21T16:05:50.198Z,7.05
2022-08-21T16:10:53.766Z,6.43
2022-08-21T16:15:56.606Z,5.13
2022-08-21T16:20:59.767Z,4.03
2022-08-21T16:26:03.810Z,6.18
2022-08-21T16:31:06.510Z,6.60
2022-08-21T16:36:12.296Z,5.38
2022-08-21T16:41:17.748Z,4.55
2022-08-21T16:46:21.533Z,4.72
2022-08-21T16:51:25.474Z,3.60
2022-08-21T16:56:28.469Z,8.10
2022-08-21T17:01:32.954Z,4.68
2022-08-21T17:06:35.824Z,4.50
2022-08-21T17:11:41.801Z,4.15
2022-08-21T17:16:47.727Z,4.53
2022-08-21T17:21:50.426Z,5.15
2022-08-21T17:26:53.747Z,6.20
2022-08-21T17:31:57.466Z,6.85
2022-08-21T17:37:00.464Z,7.20
2022-08-21T17:42:08.308Z,5.32
2022-08-21T17:47:11.351Z,6.75
2022-08-21T17:52:13.942Z,5.93
2022-08-21T17:57:22.916Z,4.50
2022-08-21T18:02:25.967Z,5.25
2022-08-21T18:07:32.755Z,5.38
2022-08-21T18:12:35.748Z,4.38
2022-08-21T18:17:38.239Z,8.60
2022-08-21T18:22:40.693Z,5.25
2022-08-21T18:27:45.920Z,6.15
2022-08-21T18:32:48.528Z,9.77
2022-08-21T18:37:51.070Z,5.72
2022-08-21T18:42:55.580Z,4.30
2022-08-21T18:47:59.190Z,7.32
2022-08-21T18:53:02.030Z,6.45
2022-08-21T18:58:20.667Z,5.40
2022-08-21T19:03:24.848Z,6.43
2022-08-21T19:08:28.906Z,5.35
2022-08-21T19:13:32.614Z,7.95
2022-08-21T19:18:39.265Z,5.53
2022-08-21T19:23:44.338Z,5.00
2022-08-21T19:28:50.162Z,3.63
2022-08-21T19:34:01.830Z,6.50
2022-08-21T19:39:08.262Z,4.65
2022-08-21T19:44:23.063Z,4.55
2022-08-21T19:49:33.481Z,3.88
2022-08-21T19:54:36.334Z,2.63
2022-08-21T19:59:40.722Z,3.72
2022-08-21T20:04:54.028Z,2.78
2022-08-21T20:09:58.027Z,3.83
2022-08-21T20:15:00.559Z,2.53
2022-08-21T20:20:03.104Z,3.78
2022-08-21T20:25:06.129Z,4.97
2022-08-21T20:30:10.906Z,5.00
2022-08-21T20:35:13.744Z,3.25
2022-08-21T20:40:16.963Z,6.43
2022-08-21T20:45:33.349Z,5.38
2022-08-21T20:50:38.883Z,8.63
2022-08-21T20:55:47.907Z,9.38
2022-08-21T21:00:51.913Z,8.05
2022-08-21T21:05:58.850Z,9.13
2022-08-21T21:11:05.806Z,7.37
2022-08-21T21:16:25.007Z,8.73
2022-08-21T21:21:51.630Z,7.90
2022-08-21T21:27:18.718Z,10.35
2022-08-21T21:32:22.149Z,13.00
2022-08-21T21:37:26.549Z,9.35
2022-08-21T21:42:40.062Z,7.78
2022-08-21T21:48:08.654Z,7.47
2022-08-21T21:59:47.377Z,5.67
2022-08-21T22:05:14.595Z,8.88
2022-08-21T22:10:43.196Z,6.43
2022-08-21T22:16:05.282Z,4.75
2022-08-21T22:21:30.645Z,4.97
2022-08-21T22:26:44.103Z,3.55
2022-08-21T22:32:04.889Z,4.75
2022-08-21T22:37:11.419Z,6.45
2022-08-21T22:42:21.833Z,5.95
2022-08-21T22:47:32.262Z,4.53
2022-08-21T22:52:38.488Z,3.53
2022-08-21T22:57:43.159Z,4.03
2022-08-21T23:02:52.348Z,6.50
2022-08-21T23:08:13.957Z,4.93
2022-08-21T23:13:19.138Z,7.88
2022-08-21T23:18:30.271Z,4.88
2022-08-21T23:23:35.884Z,5.32
2022-08-21T23:28:44.207Z,4.03
2022-08-21T23:34:07.954Z,4.82
2022-08-21T23:39:20.468Z,5.10
2022-08-21T23:44:47.688Z,4.90
2022-08-21T23:50:32.557Z,4.05
2022-08-21T23:55:59.271Z,5.45
